createdAt,value
2019-05-07T00:00:35.643Z,101179.19
2019-05-07T00:03:04.158Z,101178.97
2019-05-07T00:05:33.286Z,101178.45
2019-05-07T00:08:02.986Z,101176.48
2019-05-07T00:10:33.087Z,101179.19
2019-05-07T00:13:02.378Z,101180.27
2019-05-07T00:15:32.781Z,101181.32
2019-05-07T00:18:03.183Z,101179.57
2019-05-07T00:20:32.724Z,101180.61
2019-05-07T00:23:02.987Z,101181.40
2019-05-07T00:25:32.846Z,101181.15
2019-05-07T00:28:02.790Z,101176.70
2019-05-07T00:30:33.149Z,101174.72
2019-05-07T00:33:02.796Z,101181.48
2019-05-07T00:35:35.746Z,101183.89
2019-05-07T00:38:05.875Z,101180.67
2019-05-07T00:40:36.073Z,101178.77
2019-05-07T00:43:08.969Z,101189.09
2019-05-07T00:45:45.299Z,101188.56
2019-05-07T00:48:13.759Z,101189.59
2019-05-07T00:50:43.889Z,101191.49
2019-05-07T00:53:13.065Z,101192.56
2019-05-07T00:55:42.299Z,101193.89
2019-05-07T00:58:13.054Z,101191.45
2019-05-07T01:00:42.072Z,101191.55
2019-05-07T01:03:12.806Z,101192.17
2019-05-07T01:05:43.206Z,101190.86
2019-05-07T01:08:13.191Z,101186.24
2019-05-07T01:10:42.115Z,101192.63
2019-05-07T01:13:12.644Z,101184.39
2019-05-07T01:15:42.987Z,101188.88
2019-05-07T01:18:12.344Z,101183.28
2019-05-07T01:20:42.349Z,101180.39
2019-05-07T01:23:13.410Z,101184.53
2019-05-07T01:25:43.066Z,101188.68
2019-05-07T01:28:13.177Z,101178.74
2019-05-07T01:30:43.184Z,101185.13
2019-05-07T01:33:16.299Z,101182.78
2019-05-07T01:35:46.431Z,101183.64
2019-05-07T01:38:16.536Z,101189.64
2019-05-07T01:40:45.023Z,101185.39
2019-05-07T01:43:13.512Z,101182.90
2019-05-07T01:45:49.384Z,101183.09
2019-05-07T01:48:15.446Z,101184.61
2019-05-07T01:50:43.891Z,101189.92
2019-05-07T01:53:12.421Z,101182.42
2019-05-07T01:55:42.820Z,101185.34
2019-05-07T01:58:12.517Z,101183.64
2019-05-07T02:00:42.384Z,101181.76
2019-05-07T02:03:29.067Z,101184.61
2019-05-07T02:06:02.231Z,101187.55
2019-05-07T02:08:42.250Z,101184.19
2019-05-07T02:11:21.834Z,101189.39
2019-05-07T02:13:52.835Z,101181.11
2019-05-07T02:16:21.822Z,101184.02
2019-05-07T02:18:52.665Z,101190.44
2019-05-07T02:21:22.086Z,101190.35
2019-05-07T02:23:52.335Z,101177.44
2019-05-07T02:26:22.622Z,101183.13
2019-05-07T02:28:51.856Z,101176.32
2019-05-07T02:31:23.326Z,101177.63
2019-05-07T02:33:53.824Z,101186.55
2019-05-07T02:36:23.692Z,101185.63
2019-05-07T02:38:59.057Z,101182.19
2019-05-07T02:41:33.111Z,101184.55
2019-05-07T02:44:04.218Z,101180.65
2019-05-07T02:46:39.401Z,101182.00
2019-05-07T02:49:15.241Z,101186.14
2019-05-07T02:51:57.119Z,101187.88
2019-05-07T02:54:33.225Z,101182.12
2019-05-07T02:57:03.114Z,101185.09
2019-05-07T02:59:33.594Z,101184.02
2019-05-07T03:02:03.583Z,101189.02
2019-05-07T03:04:33.393Z,101191.12
2019-05-07T03:07:04.000Z,101190.72
2019-05-07T03:09:32.942Z,101182.48
2019-05-07T03:12:03.970Z,101188.17
2019-05-07T03:14:32.397Z,101190.48
2019-05-07T03:17:03.062Z,101194.03
2019-05-07T03:19:33.152Z,101187.22
2019-05-07T03:22:03.940Z,101179.94
2019-05-07T03:24:34.485Z,101176.63
2019-05-07T03:27:03.452Z,101184.84
2019-05-07T03:29:33.328Z,101183.91
2019-05-07T03:32:20.158Z,101184.97
2019-05-07T03:35:07.610Z,101188.00
2019-05-07T03:37:37.070Z,101186.14
2019-05-07T03:40:07.227Z,101183.13
2019-05-07T03:42:35.740Z,101188.95
2019-05-07T03:45:07.084Z,101190.94
2019-05-07T03:47:40.144Z,101184.92
2019-05-07T03:50:14.222Z,101189.76
2019-05-07T03:52:42.803Z,101193.31
2019-05-07T03:55:14.129Z,101192.42
2019-05-07T03:57:43.610Z,101191.97
2019-05-07T04:00:13.115Z,101197.89
2019-05-07T04:02:43.732Z,101201.25
2019-05-07T04:05:13.990Z,101195.03
2019-05-07T04:07:43.444Z,101201.61
2019-05-07T04:10:14.961Z,101201.32
2019-05-07T04:12:44.276Z,101195.27
2019-05-07T04:15:14.637Z,101208.01
2019-05-07T04:17:43.126Z,101206.64
2019-05-07T04:20:13.431Z,101209.25
2019-05-07T04:22:43.431Z,101206.59
2019-05-07T04:25:16.913Z,101204.68
2019-05-07T04:27:52.688Z,101206.81
2019-05-07T04:30:23.316Z,101210.56
2019-05-07T04:32:53.118Z,101206.72
2019-05-07T04:35:38.754Z,101209.94
2019-05-07T04:38:07.532Z,101209.25
2019-05-07T04:40:36.031Z,101213.44
2019-05-07T04:43:04.539Z,101214.99
2019-05-07T04:45:34.010Z,101218.84
2019-05-07T04:48:03.195Z,101217.79
2019-05-07T04:50:42.671Z,101222.22
2019-05-07T04:53:03.751Z,101220.31
2019-05-07T04:55:33.519Z,101231.92
2019-05-07T04:58:02.958Z,101226.08
2019-05-07T05:00:33.600Z,101231.86
2019-05-07T05:03:04.123Z,101233.19
2019-05-07T05:05:33.107Z,101227.63
2019-05-07T05:08:03.884Z,101239.09
2019-05-07T05:10:33.745Z,101235.38
2019-05-07T05:13:03.240Z,101238.60
2019-05-07T05:15:32.192Z,101240.94
2019-05-07T05:18:02.613Z,101243.52
2019-05-07T05:20:48.985Z,101247.02
2019-05-07T05:23:22.778Z,101241.09
2019-05-07T05:25:52.234Z,101251.55
2019-05-07T05:28:21.845Z,101257.77
2019-05-07T05:30:52.769Z,101253.45
2019-05-07T05:33:23.494Z,101260.08
2019-05-07T05:35:52.533Z,101251.22
2019-05-07T05:38:22.132Z,101257.94
2019-05-07T05:40:52.046Z,101268.38
2019-05-07T05:43:22.529Z,101264.95
2019-05-07T05:45:53.896Z,101275.23
2019-05-07T05:48:22.581Z,101267.25
2019-05-07T05:50:53.676Z,101264.98
2019-05-07T05:53:40.196Z,101266.27
2019-05-07T05:56:11.848Z,101269.08
2019-05-07T05:58:56.873Z,101272.80
2019-05-07T06:01:27.372Z,101274.73
2019-05-07T06:04:12.542Z,101269.12
2019-05-07T06:06:42.753Z,101266.51
2019-05-07T06:09:28.879Z,101274.33
2019-05-07T06:12:15.216Z,101270.14
2019-05-07T06:14:45.358Z,101273.83
2019-05-07T06:17:15.568Z,101273.20
2019-05-07T06:20:02.756Z,101271.58
2019-05-07T06:22:48.686Z,101274.70
2019-05-07T06:25:19.240Z,101275.91
2019-05-07T06:27:47.701Z,101274.19
2019-05-07T06:30:17.603Z,101265.93
2019-05-07T06:32:46.060Z,101272.72
2019-05-07T06:35:14.572Z,101272.45
2019-05-07T06:37:43.997Z,101282.85
2019-05-07T06:40:14.676Z,101279.37
2019-05-07T06:42:47.735Z,101281.91
2019-05-07T06:45:18.358Z,101285.02
2019-05-07T06:47:46.797Z,101285.30
2019-05-07T06:50:15.293Z,101290.72
2019-05-07T06:52:43.803Z,101287.39
2019-05-07T06:55:13.204Z,101283.55
2019-05-07T06:57:42.577Z,101291.53
2019-05-07T07:00:13.392Z,101290.46
2019-05-07T07:02:43.476Z,101297.08
2019-05-07T07:05:13.760Z,101299.56
2019-05-07T07:07:52.893Z,101295.97
2019-05-07T07:10:22.998Z,101296.36
2019-05-07T07:12:52.962Z,101305.36
2019-05-07T07:15:23.198Z,101308.91
2019-05-07T07:17:52.396Z,101304.86
2019-05-07T07:20:21.853Z,101301.78
2019-05-07T07:22:52.071Z,101304.56
2019-05-07T07:25:22.737Z,101299.81
2019-05-07T07:27:52.057Z,101296.07
2019-05-07T07:30:22.546Z,101303.73
2019-05-07T07:32:52.642Z,101304.27
2019-05-07T07:35:22.580Z,101293.08
2019-05-07T07:37:53.058Z,101300.67
2019-05-07T07:40:32.721Z,101298.00
2019-05-07T07:43:04.859Z,101294.94
2019-05-07T07:45:32.416Z,101290.27
2019-05-07T07:48:02.282Z,101290.31
2019-05-07T07:50:33.046Z,101288.96
2019-05-07T07:53:02.527Z,101291.13
2019-05-07T07:55:33.059Z,101291.95
2019-05-07T07:58:03.345Z,101299.08
2019-05-07T08:00:36.674Z,101291.59
2019-05-07T08:03:06.801Z,101292.95
2019-05-07T08:05:35.283Z,101296.28
2019-05-07T08:08:03.995Z,101286.47
2019-05-07T08:10:32.700Z,101284.53
2019-05-07T08:13:01.998Z,101289.96
2019-05-07T08:15:32.867Z,101283.69
2019-05-07T08:18:02.878Z,101289.56
2019-05-07T08:20:32.656Z,101275.16
2019-05-07T08:23:02.991Z,101280.41
2019-05-07T08:25:49.467Z,101284.56
2019-05-07T08:28:19.086Z,101292.51
2019-05-07T08:31:05.677Z,101291.67
2019-05-07T08:33:36.361Z,101282.64
2019-05-07T08:36:08.863Z,101293.81
2019-05-07T08:38:52.851Z,101293.87
2019-05-07T08:41:22.589Z,101284.47
2019-05-07T08:44:07.301Z,101291.55
2019-05-07T08:46:37.084Z,101283.38
2019-05-07T08:49:07.349Z,101285.56
2019-05-07T08:51:35.875Z,101268.30
2019-05-07T08:54:06.869Z,101285.92
2019-05-07T08:56:36.710Z,101279.28
2019-05-07T08:59:06.195Z,101272.72
2019-05-07T09:01:36.646Z,101273.25
2019-05-07T09:04:05.819Z,101276.78
2019-05-07T09:06:34.351Z,101275.86
2019-05-07T09:09:06.678Z,101273.93
2019-05-07T09:11:35.189Z,101269.16
2019-05-07T09:14:03.692Z,101266.44
2019-05-07T09:16:32.162Z,101265.86
2019-05-07T09:19:02.175Z,101270.73
2019-05-07T09:21:32.213Z,101275.00
2019-05-07T09:24:02.552Z,101270.70
2019-05-07T09:26:32.971Z,101264.73
2019-05-07T09:29:03.161Z,101269.75
2019-05-07T09:31:36.243Z,101268.67
2019-05-07T09:34:04.817Z,101268.00
2019-05-07T09:36:34.931Z,101274.80
2019-05-07T09:39:05.003Z,101277.01
2019-05-07T09:41:33.450Z,101274.98
2019-05-07T09:44:03.168Z,101276.55
2019-05-07T09:46:32.535Z,101276.59
2019-05-07T09:49:03.084Z,101278.65
2019-05-07T09:51:32.294Z,101273.83
2019-05-07T09:54:02.537Z,101274.58
2019-05-07T09:56:31.975Z,101263.03
2019-05-07T09:59:02.221Z,101265.52
2019-05-07T10:01:31.932Z,101266.77
2019-05-07T10:04:02.638Z,101268.42
2019-05-07T10:06:32.051Z,101272.24
2019-05-07T10:09:02.705Z,101263.27
2019-05-07T10:11:35.404Z,101260.73
2019-05-07T10:14:09.098Z,101257.48
2019-05-07T10:16:45.205Z,101255.84
2019-05-07T10:19:13.896Z,101261.74
2019-05-07T10:21:42.588Z,101264.53
2019-05-07T10:24:12.873Z,101261.06
2019-05-07T10:26:42.857Z,101254.42
2019-05-07T10:29:12.629Z,101245.84
2019-05-07T10:31:42.412Z,101247.08
2019-05-07T10:34:12.281Z,101256.80
2019-05-07T10:36:42.155Z,101263.41
2019-05-07T10:39:12.734Z,101267.34
2019-05-07T10:41:42.496Z,101260.44
2019-05-07T10:44:12.062Z,101258.96
2019-05-07T10:46:42.325Z,101251.16
2019-05-07T10:49:18.615Z,101252.57
2019-05-07T10:51:47.195Z,101254.20
2019-05-07T10:54:15.672Z,101252.78
2019-05-07T10:56:44.214Z,101253.41
2019-05-07T10:59:12.694Z,101249.39
2019-05-07T11:01:45.314Z,101263.05
2019-05-07T11:04:13.838Z,101256.20
2019-05-07T11:06:42.331Z,101249.58
2019-05-07T11:09:10.884Z,101248.80
2019-05-07T11:11:39.375Z,101244.53
2019-05-07T11:14:07.975Z,101245.39
2019-05-07T11:16:38.170Z,101247.50
2019-05-07T11:19:06.752Z,101242.55
2019-05-07T11:21:35.260Z,101237.96
2019-05-07T11:24:03.865Z,101237.80
2019-05-07T11:26:32.973Z,101241.81
2019-05-07T11:29:02.378Z,101245.09
2019-05-07T11:31:36.682Z,101241.88
2019-05-07T11:34:05.241Z,101246.54
2019-05-07T11:36:34.465Z,101244.48
2019-05-07T11:39:04.818Z,101248.62
2019-05-07T11:41:47.177Z,101246.53
2019-05-07T11:44:17.292Z,101244.65
2019-05-07T11:47:03.571Z,101231.80
2019-05-07T11:49:49.929Z,101240.14
2019-05-07T11:52:19.272Z,101227.29
2019-05-07T11:54:47.735Z,101223.09
2019-05-07T11:57:16.222Z,101226.63
2019-05-07T11:59:44.646Z,101227.69
2019-05-07T12:02:13.224Z,101224.61
2019-05-07T12:04:42.214Z,101218.95
2019-05-07T12:07:11.893Z,101214.81
2019-05-07T12:09:40.532Z,101233.41
2019-05-07T12:12:09.076Z,101228.27
2019-05-07T12:14:37.520Z,101228.27
2019-05-07T12:17:06.081Z,101228.23
2019-05-07T12:19:34.604Z,101218.09
2019-05-07T12:22:04.179Z,101206.37
2019-05-07T12:24:32.906Z,101215.36
2019-05-07T12:27:02.669Z,101216.20
2019-05-07T12:29:32.259Z,101206.84
2019-05-07T12:32:18.872Z,101212.80
2019-05-07T12:34:48.979Z,101219.53
2019-05-07T12:37:17.442Z,101210.34
2019-05-07T12:39:45.903Z,101206.66
2019-05-07T12:42:14.351Z,101209.69
2019-05-07T12:44:43.356Z,101201.22
2019-05-07T12:47:12.161Z,101202.81
2019-05-07T12:49:42.739Z,101205.77
2019-05-07T12:52:12.773Z,101197.88
2019-05-07T12:54:48.633Z,101202.56
2019-05-07T12:57:17.175Z,101206.75
2019-05-07T12:59:45.619Z,101198.98
2019-05-07T13:02:38.113Z,101217.11
2019-05-07T13:05:02.947Z,101218.45
2019-05-07T13:07:33.350Z,101212.11
2019-05-07T13:10:02.640Z,101212.61
2019-05-07T13:12:32.169Z,101215.56
2019-05-07T13:15:02.997Z,101214.46
2019-05-07T13:17:31.088Z,101215.44
2019-05-07T13:20:01.617Z,101181.35
2019-05-07T13:22:29.767Z,101208.38
2019-05-07T13:24:58.291Z,101192.60
2019-05-07T13:27:26.763Z,101184.08
2019-05-07T13:29:55.293Z,101203.20
2019-05-07T13:32:24.912Z,101187.68
2019-05-07T13:34:54.007Z,101180.52
2019-05-07T13:37:24.516Z,101177.08
2019-05-07T13:39:54.847Z,101184.62
2019-05-07T13:42:43.502Z,101178.92
2019-05-07T13:45:13.199Z,101183.56
2019-05-07T13:47:41.667Z,101163.72
2019-05-07T13:50:11.917Z,101164.75
2019-05-07T13:52:43.148Z,101169.74
2019-05-07T13:55:12.953Z,101177.66
2019-05-07T13:57:41.707Z,101160.62
2019-05-07T14:00:12.974Z,101146.05
2019-05-07T14:02:42.176Z,101151.88
2019-05-07T14:05:13.985Z,101150.43
2019-05-07T14:07:43.246Z,101147.03
2019-05-07T14:10:12.705Z,101140.12
2019-05-07T14:12:42.537Z,101148.73
2019-05-07T14:15:12.551Z,101152.50
2019-05-07T14:17:41.198Z,101148.31
2019-05-07T14:20:09.710Z,101156.41
2019-05-07T14:22:38.163Z,101162.61
2019-05-07T14:25:07.677Z,101142.36
2019-05-07T14:27:36.147Z,101157.50
2019-05-07T14:30:07.389Z,101154.59
2019-05-07T14:32:53.448Z,101132.22
2019-05-07T14:35:23.553Z,101128.05
2019-05-07T14:37:56.369Z,101128.86
2019-05-07T14:40:25.162Z,101124.08
2019-05-07T14:42:58.372Z,101134.25
2019-05-07T14:45:26.847Z,101131.41
2019-05-07T14:47:55.397Z,101126.52
2019-05-07T14:50:23.916Z,101128.07
2019-05-07T14:52:55.221Z,101123.55
2019-05-07T14:55:22.679Z,101123.44
2019-05-07T14:57:52.433Z,101135.34
2019-05-07T15:00:22.548Z,101121.13
2019-05-07T15:02:52.477Z,101124.34
2019-05-07T15:05:22.360Z,101115.37
2019-05-07T15:07:51.191Z,101113.05
2019-05-07T15:10:22.021Z,101118.00
2019-05-07T15:12:52.197Z,101108.03
2019-05-07T15:15:21.931Z,101111.56
2019-05-07T15:18:04.079Z,101110.75
2019-05-07T15:20:33.122Z,101098.44
2019-05-07T15:23:04.699Z,101101.98
2019-05-07T15:25:33.183Z,101102.95
2019-05-07T15:28:01.915Z,101109.41
2019-05-07T15:30:32.579Z,101106.45
2019-05-07T15:33:02.262Z,101100.88
2019-05-07T15:35:32.029Z,101101.13
2019-05-07T15:38:02.493Z,101099.52
2019-05-07T15:40:32.950Z,101098.82
2019-05-07T15:43:02.157Z,101099.52
2019-05-07T15:45:31.037Z,101096.17
2019-05-07T15:47:59.507Z,101095.88
2019-05-07T15:50:32.246Z,101088.30
2019-05-07T15:53:05.693Z,101090.35
2019-05-07T15:55:34.233Z,101094.80
2019-05-07T15:58:02.897Z,101090.41
2019-05-07T16:00:33.590Z,101084.61
2019-05-07T16:03:06.611Z,101083.72
2019-05-07T16:05:35.228Z,101081.01
2019-05-07T16:08:04.751Z,101077.30
2019-05-07T16:10:33.306Z,101081.74
2019-05-07T16:13:01.930Z,101082.48
2019-05-07T16:15:31.978Z,101082.62
2019-05-07T16:18:02.894Z,101078.91
2019-05-07T16:20:32.602Z,101073.69
2019-05-07T16:23:14.418Z,101076.02
2019-05-07T16:25:33.240Z,101080.58
2019-05-07T16:28:04.750Z,101077.89
2019-05-07T16:30:32.419Z,101082.29
2019-05-07T16:33:02.119Z,101074.58
2019-05-07T16:35:32.039Z,101073.30
2019-05-07T16:38:00.773Z,101087.64
2019-05-07T16:40:29.255Z,101079.38
2019-05-07T16:42:57.739Z,101074.05
2019-05-07T16:45:26.185Z,101075.55
2019-05-07T16:47:54.789Z,101076.95
2019-05-07T16:50:23.443Z,101081.64
2019-05-07T16:52:52.517Z,101080.36
2019-05-07T16:55:23.109Z,101077.37
2019-05-07T16:58:01.903Z,101077.37
2019-05-07T17:00:34.877Z,101077.38
2019-05-07T17:03:05.058Z,101078.03
2019-05-07T17:05:33.522Z,101070.22
2019-05-07T17:08:03.753Z,101069.00
2019-05-07T17:10:32.217Z,101066.38
2019-05-07T17:13:02.779Z,101059.00
2019-05-07T17:15:31.344Z,101064.19
2019-05-07T17:17:59.819Z,101062.16
2019-05-07T17:20:28.553Z,101068.44
2019-05-07T17:22:57.765Z,101071.36
2019-05-07T17:25:38.287Z,101067.81
2019-05-07T17:28:12.472Z,101066.27
2019-05-07T17:30:42.074Z,101064.81
2019-05-07T17:33:12.605Z,101066.07
2019-05-07T17:35:42.363Z,101071.89
2019-05-07T17:38:12.887Z,101065.22
2019-05-07T17:40:42.396Z,101063.77
2019-05-07T17:43:12.317Z,101064.17
2019-05-07T17:45:42.814Z,101062.26
2019-05-07T17:48:12.334Z,101062.68
2019-05-07T17:50:45.605Z,101058.45
2019-05-07T17:53:14.167Z,101055.20
2019-05-07T17:55:42.809Z,101056.84
2019-05-07T17:58:12.920Z,101052.47
2019-05-07T18:00:43.864Z,101056.39
2019-05-07T18:03:32.667Z,101058.27
2019-05-07T18:06:02.416Z,101060.03
2019-05-07T18:08:32.534Z,101058.73
2019-05-07T18:11:02.517Z,101058.77
2019-05-07T18:13:32.265Z,101060.79
2019-05-07T18:16:02.947Z,101056.73
2019-05-07T18:18:32.745Z,101056.77
2019-05-07T18:21:02.427Z,101058.98
2019-05-07T18:23:32.451Z,101055.48
2019-05-07T18:26:01.016Z,101057.17
2019-05-07T18:28:29.786Z,101055.58
2019-05-07T18:30:59.015Z,101056.12
2019-05-07T18:33:33.599Z,101057.83
2019-05-07T18:36:02.851Z,101062.76
2019-05-07T18:38:32.911Z,101058.09
2019-05-07T18:41:02.850Z,101062.52
2019-05-07T18:43:33.245Z,101057.05
2019-05-07T18:46:02.327Z,101063.36
2019-05-07T18:48:31.411Z,101067.45
2019-05-07T18:51:00.047Z,101061.17
2019-05-07T18:53:28.535Z,101061.72
2019-05-07T18:55:57.109Z,101061.73
2019-05-07T18:58:25.722Z,101063.64
2019-05-07T19:00:55.871Z,101069.12
2019-05-07T19:03:25.463Z,101074.86
2019-05-07T19:05:55.351Z,101068.83
2019-05-07T19:08:23.842Z,101068.27
2019-05-07T19:10:52.356Z,101074.00
2019-05-07T19:13:22.216Z,101077.52
2019-05-07T19:15:53.014Z,101078.02
2019-05-07T19:18:22.795Z,101071.50
2019-05-07T19:20:52.984Z,101077.14
2019-05-07T19:23:22.304Z,101082.02
2019-05-07T19:25:52.233Z,101074.63
2019-05-07T19:28:22.430Z,101076.83
2019-05-07T19:30:52.825Z,101068.02
2019-05-07T19:33:26.715Z,101074.57
2019-05-07T19:35:52.937Z,101073.72
2019-05-07T19:38:21.459Z,101073.67
2019-05-07T19:40:50.043Z,101075.86
2019-05-07T19:43:18.487Z,101077.42
2019-05-07T19:45:47.210Z,101085.27
2019-05-07T19:48:15.643Z,101076.77
2019-05-07T19:50:44.135Z,101071.81
2019-05-07T19:53:12.686Z,101074.48
2019-05-07T19:56:01.885Z,101073.91
2019-05-07T19:58:29.665Z,101071.89
2019-05-07T20:00:58.297Z,101068.09
2019-05-07T20:03:26.779Z,101068.30
2019-05-07T20:05:55.262Z,101069.58
2019-05-07T20:08:23.737Z,101062.98
2019-05-07T20:10:59.844Z,101062.97
2019-05-07T20:13:28.343Z,101068.88
2019-05-07T20:16:02.869Z,101062.70
2019-05-07T20:18:32.657Z,101066.02
2019-05-07T20:21:02.711Z,101065.61
2019-05-07T20:23:40.209Z,101059.88
2019-05-07T20:26:08.995Z,101057.02
2019-05-07T20:28:37.570Z,101061.83
2019-05-07T20:31:06.276Z,101061.96
2019-05-07T20:33:34.789Z,101061.69
2019-05-07T20:36:03.907Z,101058.03
2019-05-07T20:38:32.354Z,101059.33
2019-05-07T20:41:02.069Z,101053.53
2019-05-07T20:43:32.603Z,101056.27
2019-05-07T20:46:02.625Z,101055.38
2019-05-07T20:48:32.488Z,101056.63
2019-05-07T20:51:01.537Z,101053.25
2019-05-07T20:53:48.083Z,101050.87
2019-05-07T20:56:18.267Z,101056.17
2019-05-07T20:58:46.706Z,101055.81
2019-05-07T21:01:15.260Z,101048.30
2019-05-07T21:03:43.814Z,101052.62
2019-05-07T21:06:12.308Z,101048.66
2019-05-07T21:08:42.731Z,101049.69
2019-05-07T21:11:11.937Z,101048.75
2019-05-07T21:13:44.091Z,101051.11
2019-05-07T21:16:12.678Z,101048.81
2019-05-07T21:18:42.128Z,101055.48
2019-05-07T21:21:12.495Z,101047.84
2019-05-07T21:23:43.184Z,101047.25
2019-05-07T21:26:13.093Z,101050.75
2019-05-07T21:28:43.142Z,101045.00
2019-05-07T21:31:12.187Z,101048.16
2019-05-07T21:33:42.836Z,101048.47
2019-05-07T21:36:12.124Z,101043.35
2019-05-07T21:38:42.530Z,101041.98
2019-05-07T21:41:12.890Z,101040.05
2019-05-07T21:43:44.240Z,101042.53
2019-05-07T21:46:12.833Z,101042.88
2019-05-07T21:48:41.637Z,101046.22
2019-05-07T21:51:12.249Z,101036.55
2019-05-07T21:53:42.971Z,101043.58
2019-05-07T21:56:31.378Z,101045.42
2019-05-07T21:59:03.041Z,101037.27
2019-05-07T22:01:35.832Z,101039.80
2019-05-07T22:04:04.673Z,101037.84
2019-05-07T22:06:33.144Z,101031.27
2019-05-07T22:09:02.139Z,101034.14
2019-05-07T22:11:32.289Z,101040.33
2019-05-07T22:14:02.099Z,101034.58
2019-05-07T22:16:32.799Z,101031.72
2019-05-07T22:19:02.691Z,101032.47
2019-05-07T22:21:33.961Z,101037.49
2019-05-07T22:24:03.030Z,101042.71
2019-05-07T22:26:32.346Z,101032.62
2019-05-07T22:29:03.144Z,101033.59
2019-05-07T22:31:32.839Z,101035.81
2019-05-07T22:34:19.193Z,101035.48
2019-05-07T22:36:47.681Z,101027.98
2019-05-07T22:39:16.136Z,101026.95
2019-05-07T22:41:44.646Z,101024.80
2019-05-07T22:44:13.087Z,101021.76
2019-05-07T22:46:42.302Z,101016.23
2019-05-07T22:49:12.247Z,101013.28
2019-05-07T22:51:40.982Z,101009.09
2019-05-07T22:54:11.707Z,101005.61
2019-05-07T22:56:59.620Z,100999.66
2019-05-07T22:59:28.220Z,100995.07
2019-05-07T23:01:56.665Z,100990.11
2019-05-07T23:04:25.187Z,100992.89
2019-05-07T23:06:53.642Z,100983.23
2019-05-07T23:09:22.633Z,100980.52
2019-05-07T23:11:52.651Z,100983.97
2019-05-07T23:14:22.546Z,100984.14
2019-05-07T23:16:54.963Z,100978.80
2019-05-07T23:19:22.068Z,100978.98
2019-05-07T23:21:52.130Z,100972.72
2019-05-07T23:24:22.661Z,100967.50
2019-05-07T23:26:53.292Z,100968.30
2019-05-07T23:29:22.544Z,100965.23
2019-05-07T23:31:52.962Z,100965.33
2019-05-07T23:34:22.160Z,100968.34
2019-05-07T23:36:53.300Z,100963.38
2019-05-07T23:39:22.869Z,100957.72
2019-05-07T23:41:52.969Z,100954.67
2019-05-07T23:44:22.858Z,100960.27
2019-05-07T23:46:52.062Z,100966.05
2019-05-07T23:49:22.977Z,100961.39
2019-05-07T23:51:52.804Z,100958.25
2019-05-07T23:54:22.938Z,100953.36
2019-05-07T23:57:05.391Z,100947.00
2019-05-07T23:59:22.142Z,100946.80
